sensor_id;sensor_type;location;lat;lon;timestamp;temperature;humidity
8965;DHT22;4517;49.020;12.066;2022-11-04T00:01:48;9.70;99.90
8965;DHT22;4517;49.020;12.066;2022-11-04T00:04:15;9.70;99.90
8965;DHT22;4517;49.020;12.066;2022-11-04T00:06:42;9.70;99.90
8965;DHT22;4517;49.020;12.066;2022-11-04T00:09:10;9.70;99.90
8965;DHT22;4517;49.020;12.066;2022-11-04T00:11:36;9.70;99.90
8965;DHT22;4517;49.020;12.066;2022-11-04T00:14:20;9.70;99.90
8965;DHT22;4517;49.020;12.066;2022-11-04T00:16:46;9.70;99.90
8965;DHT22;4517;49.020;12.066;2022-11-04T00:19:30;9.70;99.90
8965;DHT22;4517;49.020;12.066;2022-11-04T00:22:16;9.70;99.90
8965;DHT22;4517;49.020;12.066;2022-11-04T00:25:00;9.80;99.90
8965;DHT22;4517;49.020;12.066;2022-11-04T00:27:44;9.70;99.90
8965;DHT22;4517;49.020;12.066;2022-11-04T00:30:28;9.70;99.90
8965;DHT22;4517;49.020;12.066;2022-11-04T00:32:54;9.70;99.90
8965;DHT22;4517;49.020;12.066;2022-11-04T00:35:38;9.60;99.90
8965;DHT22;4517;49.020;12.066;2022-11-04T00:38:04;9.70;99.90
8965;DHT22;4517;49.020;12.066;2022-11-04T00:40:29;9.70;99.90
8965;DHT22;4517;49.020;12.066;2022-11-04T00:42:55;9.70;99.90
8965;DHT22;4517;49.020;12.066;2022-11-04T00:45:20;9.60;99.90
8965;DHT22;4517;49.020;12.066;2022-11-04T00:47:46;9.60;99.90
8965;DHT22;4517;49.020;12.066;2022-11-04T00:50:11;9.70;99.90
8965;DHT22;4517;49.020;12.066;2022-11-04T00:52:37;9.70;99.90
8965;DHT22;4517;49.020;12.066;2022-11-04T00:55:03;9.60;99.90
8965;DHT22;4517;49.020;12.066;2022-11-04T00:57:29;9.60;99.90
8965;DHT22;4517;49.020;12.066;2022-11-04T00:59:54;9.60;99.90
8965;DHT22;4517;49.020;12.066;2022-11-04T01:02:20;9.60;99.90
8965;DHT22;4517;49.020;12.066;2022-11-04T01:04:47;9.50;99.90
8965;DHT22;4517;49.020;12.066;2022-11-04T01:07:12;9.50;99.90
8965;DHT22;4517;49.020;12.066;2022-11-04T01:09:38;9.60;99.90
8965;DHT22;4517;49.020;12.066;2022-11-04T01:12:04;9.60;99.90
8965;DHT22;4517;49.020;12.066;2022-11-04T01:14:31;9.60;99.90
8965;DHT22;4517;49.020;12.066;2022-11-04T01:16:57;9.50;99.90
8965;DHT22;4517;49.020;12.066;2022-11-04T01:19:22;9.60;99.90
8965;DHT22;4517;49.020;12.066;2022-11-04T01:21:51;9.60;99.90
8965;DHT22;4517;49.020;12.066;2022-11-04T01:24:17;9.60;99.90
8965;DHT22;4517;49.020;12.066;2022-11-04T01:26:43;9.60;99.90
8965;DHT22;4517;49.020;12.066;2022-11-04T01:29:09;9.60;99.90
8965;DHT22;4517;49.020;12.066;2022-11-04T01:31:35;9.60;99.90
8965;DHT22;4517;49.020;12.066;2022-11-04T01:34:00;9.60;99.90
8965;DHT22;4517;49.020;12.066;2022-11-04T01:36:26;9.70;99.90
8965;DHT22;4517;49.020;12.066;2022-11-04T01:38:54;9.70;99.90
8965;DHT22;4517;49.020;12.066;2022-11-04T01:41:27;9.70;99.90
8965;DHT22;4517;49.020;12.066;2022-11-04T01:43:58;9.70;99.90
8965;DHT22;4517;49.020;12.066;2022-11-04T01:46:38;9.70;99.90
8965;DHT22;4517;49.020;12.066;2022-11-04T01:49:25;9.70;99.90
8965;DHT22;4517;49.020;12.066;2022-11-04T01:51:55;9.60;99.90
8965;DHT22;4517;49.020;12.066;2022-11-04T01:54:23;9.60;99.90
8965;DHT22;4517;49.020;12.066;2022-11-04T01:56:49;9.50;99.90
8965;DHT22;4517;49.020;12.066;2022-11-04T01:59:24;9.50;99.90
8965;DHT22;4517;49.020;12.066;2022-11-04T02:01:58;9.50;99.90
8965;DHT22;4517;49.020;12.066;2022-11-04T02:04:24;9.50;99.90
8965;DHT22;4517;49.020;12.066;2022-11-04T02:07:09;9.50;99.90
8965;DHT22;4517;49.020;12.066;2022-11-04T02:09:37;9.50;99.90
8965;DHT22;4517;49.020;12.066;2022-11-04T02:12:04;9.60;99.90
8965;DHT22;4517;49.020;12.066;2022-11-04T02:14:50;9.60;99.90
8965;DHT22;4517;49.020;12.066;2022-11-04T02:20:09;9.60;99.90
8965;DHT22;4517;49.020;12.066;2022-11-04T02:25:38;9.60;99.90
8965;DHT22;4517;49.020;12.066;2022-11-04T02:28:39;9.60;99.90
8965;DHT22;4517;49.020;12.066;2022-11-04T02:42:40;9.50;99.90
8965;DHT22;4517;49.020;12.066;2022-11-04T02:45:15;9.50;99.90
8965;DHT22;4517;49.020;12.066;2022-11-04T02:47:51;9.50;99.90
8965;DHT22;4517;49.020;12.066;2022-11-04T02:50:30;9.50;99.90
8965;DHT22;4517;49.020;12.066;2022-11-04T02:53:03;9.50;99.90
8965;DHT22;4517;49.020;12.066;2022-11-04T02:55:38;9.40;99.90
8965;DHT22;4517;49.020;12.066;2022-11-04T02:58:10;9.40;99.90
8965;DHT22;4517;49.020;12.066;2022-11-04T03:00:38;9.40;99.90
8965;DHT22;4517;49.020;12.066;2022-11-04T03:03:10;9.40;99.90
8965;DHT22;4517;49.020;12.066;2022-11-04T03:05:39;9.40;99.90
8965;DHT22;4517;49.020;12.066;2022-11-04T03:08:13;9.40;99.90
8965;DHT22;4517;49.020;12.066;2022-11-04T03:10:44;9.40;99.90
8965;DHT22;4517;49.020;12.066;2022-11-04T03:13:14;9.30;99.90
8965;DHT22;4517;49.020;12.066;2022-11-04T03:15:49;9.30;99.90
8965;DHT22;4517;49.020;12.066;2022-11-04T03:18:32;9.30;99.90
8965;DHT22;4517;49.020;12.066;2022-11-04T03:21:01;9.30;99.90
8965;DHT22;4517;49.020;12.066;2022-11-04T03:23:27;9.20;99.90
8965;DHT22;4517;49.020;12.066;2022-11-04T03:25:57;9.20;99.90
8965;DHT22;4517;49.020;12.066;2022-11-04T03:28:36;9.20;99.90
8965;DHT22;4517;49.020;12.066;2022-11-04T03:31:10;9.20;99.90
8965;DHT22;4517;49.020;12.066;2022-11-04T03:33:49;9.20;99.90
8965;DHT22;4517;49.020;12.066;2022-11-04T03:36:15;9.20;99.90
8965;DHT22;4517;49.020;12.066;2022-11-04T03:38:42;9.20;99.90
8965;DHT22;4517;49.020;12.066;2022-11-04T03:41:18;9.20;99.90
8965;DHT22;4517;49.020;12.066;2022-11-04T03:43:48;9.20;99.90
8965;DHT22;4517;49.020;12.066;2022-11-04T03:46:14;9.20;99.90
8965;DHT22;4517;49.020;12.066;2022-11-04T03:48:40;9.20;99.90
8965;DHT22;4517;49.020;12.066;2022-11-04T03:51:07;9.20;99.90
8965;DHT22;4517;49.020;12.066;2022-11-04T03:53:33;9.20;99.90
8965;DHT22;4517;49.020;12.066;2022-11-04T04:01:49;9.10;99.90
8965;DHT22;4517;49.020;12.066;2022-11-04T04:04:39;9.10;99.90
8965;DHT22;4517;49.020;12.066;2022-11-04T04:07:15;9.10;99.90
8965;DHT22;4517;49.020;12.066;2022-11-04T04:09:56;9.10;99.90
8965;DHT22;4517;49.020;12.066;2022-11-04T04:14:56;9.10;99.90
8965;DHT22;4517;49.020;12.066;2022-11-04T04:17:32;9.10;99.90
8965;DHT22;4517;49.020;12.066;2022-11-04T04:20:07;9.10;99.90
8965;DHT22;4517;49.020;12.066;2022-11-04T04:22:47;9.10;99.90
8965;DHT22;4517;49.020;12.066;2022-11-04T04:25:14;9.10;99.90
8965;DHT22;4517;49.020;12.066;2022-11-04T04:28:00;9.10;99.90
8965;DHT22;4517;49.020;12.066;2022-11-04T04:30:26;9.00;99.90
8965;DHT22;4517;49.020;12.066;2022-11-04T04:32:58;9.10;99.90
8965;DHT22;4517;49.020;12.066;2022-11-04T04:35:27;9.00;99.90
8965;DHT22;4517;49.020;12.066;2022-11-04T04:38:22;9.00;99.90
8965;DHT22;4517;49.020;12.066;2022-11-04T04:43:57;9.00;99.90
8965;DHT22;4517;49.020;12.066;2022-11-04T04:46:43;9.00;99.90
8965;DHT22;4517;49.020;12.066;2022-11-04T04:49:09;9.00;99.90
8965;DHT22;4517;49.020;12.066;2022-11-04T04:51:40;9.00;99.90
8965;DHT22;4517;49.020;12.066;2022-11-04T04:54:07;8.90;99.90
8965;DHT22;4517;49.020;12.066;2022-11-04T04:56:32;8.90;99.90
8965;DHT22;4517;49.020;12.066;2022-11-04T04:58:58;8.90;99.90
8965;DHT22;4517;49.020;12.066;2022-11-04T05:01:24;8.90;99.90
8965;DHT22;4517;49.020;12.066;2022-11-04T05:03:49;8.90;99.90
8965;DHT22;4517;49.020;12.066;2022-11-04T05:06:15;8.90;99.90
8965;DHT22;4517;49.020;12.066;2022-11-04T05:08:40;8.90;99.90
8965;DHT22;4517;49.020;12.066;2022-11-04T05:11:06;8.90;99.90
8965;DHT22;4517;49.020;12.066;2022-11-04T05:13:31;8.90;99.90
8965;DHT22;4517;49.020;12.066;2022-11-04T05:16:03;8.90;99.90
8965;DHT22;4517;49.020;12.066;2022-11-04T05:18:29;8.90;99.90
8965;DHT22;4517;49.020;12.066;2022-11-04T05:20:55;8.90;99.90
8965;DHT22;4517;49.020;12.066;2022-11-04T05:23:20;8.90;99.90
8965;DHT22;4517;49.020;12.066;2022-11-04T05:25:46;8.80;99.90
8965;DHT22;4517;49.020;12.066;2022-11-04T05:28:11;8.80;99.90
8965;DHT22;4517;49.020;12.066;2022-11-04T05:30:37;8.90;99.90
8965;DHT22;4517;49.020;12.066;2022-11-04T05:33:03;8.90;99.90
8965;DHT22;4517;49.020;12.066;2022-11-04T05:35:29;8.90;99.90
8965;DHT22;4517;49.020;12.066;2022-11-04T05:37:55;8.80;99.90
8965;DHT22;4517;49.020;12.066;2022-11-04T05:40:22;8.90;99.90
8965;DHT22;4517;49.020;12.066;2022-11-04T05:42:47;8.90;99.90
8965;DHT22;4517;49.020;12.066;2022-11-04T05:45:13;9.00;99.90
8965;DHT22;4517;49.020;12.066;2022-11-04T05:47:38;9.00;99.90
8965;DHT22;4517;49.020;12.066;2022-11-04T05:50:05;9.00;99.90
8965;DHT22;4517;49.020;12.066;2022-11-04T05:52:30;9.00;99.90
8965;DHT22;4517;49.020;12.066;2022-11-04T05:54:56;9.00;99.90
8965;DHT22;4517;49.020;12.066;2022-11-04T05:57:21;9.00;99.90
8965;DHT22;4517;49.020;12.066;2022-11-04T05:59:47;9.00;99.90
8965;DHT22;4517;49.020;12.066;2022-11-04T06:02:13;9.00;99.90
8965;DHT22;4517;49.020;12.066;2022-11-04T06:04:38;9.00;99.90
8965;DHT22;4517;49.020;12.066;2022-11-04T06:07:04;9.00;99.90
8965;DHT22;4517;49.020;12.066;2022-11-04T06:09:29;9.00;99.90
8965;DHT22;4517;49.020;12.066;2022-11-04T06:12:09;9.10;99.90
8965;DHT22;4517;49.020;12.066;2022-11-04T06:14:35;9.10;99.90
8965;DHT22;4517;49.020;12.066;2022-11-04T06:17:01;9.10;99.90
8965;DHT22;4517;49.020;12.066;2022-11-04T06:19:27;9.10;99.90
8965;DHT22;4517;49.020;12.066;2022-11-04T06:21:53;9.10;99.90
8965;DHT22;4517;49.020;12.066;2022-11-04T06:24:18;9.10;99.90
8965;DHT22;4517;49.020;12.066;2022-11-04T06:26:44;9.10;99.90
8965;DHT22;4517;49.020;12.066;2022-11-04T06:29:10;9.10;99.90
8965;DHT22;4517;49.020;12.066;2022-11-04T06:31:36;9.10;99.90
8965;DHT22;4517;49.020;12.066;2022-11-04T06:34:02;9.10;99.90
8965;DHT22;4517;49.020;12.066;2022-11-04T06:36:27;9.10;99.90
8965;DHT22;4517;49.020;12.066;2022-11-04T06:38:53;9.10;99.90
8965;DHT22;4517;49.020;12.066;2022-11-04T06:41:19;9.10;99.90
8965;DHT22;4517;49.020;12.066;2022-11-04T06:43:44;9.10;99.90
8965;DHT22;4517;49.020;12.066;2022-11-04T06:46:24;9.10;99.90
8965;DHT22;4517;49.020;12.066;2022-11-04T06:48:50;9.10;99.90
8965;DHT22;4517;49.020;12.066;2022-11-04T06:51:16;9.10;99.90
8965;DHT22;4517;49.020;12.066;2022-11-04T06:53:41;9.00;99.90
8965;DHT22;4517;49.020;12.066;2022-11-04T06:56:08;9.00;99.90
8965;DHT22;4517;49.020;12.066;2022-11-04T06:58:34;9.00;99.90
8965;DHT22;4517;49.020;12.066;2022-11-04T07:00:59;9.00;99.90
8965;DHT22;4517;49.020;12.066;2022-11-04T07:03:25;8.90;99.90
8965;DHT22;4517;49.020;12.066;2022-11-04T07:05:51;8.90;99.90
8965;DHT22;4517;49.020;12.066;2022-11-04T07:08:17;8.80;99.90
8965;DHT22;4517;49.020;12.066;2022-11-04T07:10:43;8.80;99.90
8965;DHT22;4517;49.020;12.066;2022-11-04T07:13:09;8.70;99.90
8965;DHT22;4517;49.020;12.066;2022-11-04T07:15:36;8.80;99.90
8965;DHT22;4517;49.020;12.066;2022-11-04T07:18:02;8.80;99.90
8965;DHT22;4517;49.020;12.066;2022-11-04T07:20:28;8.90;99.90
8965;DHT22;4517;49.020;12.066;2022-11-04T07:22:53;8.90;99.90
8965;DHT22;4517;49.020;12.066;2022-11-04T07:25:19;9.00;99.90
8965;DHT22;4517;49.020;12.066;2022-11-04T07:27:45;9.00;99.90
8965;DHT22;4517;49.020;12.066;2022-11-04T07:30:10;9.00;99.90
8965;DHT22;4517;49.020;12.066;2022-11-04T07:32:38;9.00;99.90
8965;DHT22;4517;49.020;12.066;2022-11-04T07:35:04;9.00;99.90
8965;DHT22;4517;49.020;12.066;2022-11-04T07:37:30;9.00;99.90
8965;DHT22;4517;49.020;12.066;2022-11-04T07:39:55;9.10;99.90
8965;DHT22;4517;49.020;12.066;2022-11-04T07:42:21;9.00;99.90
8965;DHT22;4517;49.020;12.066;2022-11-04T07:44:46;9.00;99.90
8965;DHT22;4517;49.020;12.066;2022-11-04T07:47:12;9.00;99.90
8965;DHT22;4517;49.020;12.066;2022-11-04T07:49:38;9.00;99.90
8965;DHT22;4517;49.020;12.066;2022-11-04T07:52:05;9.00;99.90
8965;DHT22;4517;49.020;12.066;2022-11-04T07:54:30;9.00;99.90
8965;DHT22;4517;49.020;12.066;2022-11-04T07:56:57;9.00;99.90
8965;DHT22;4517;49.020;12.066;2022-11-04T07:59:22;9.00;99.90
8965;DHT22;4517;49.020;12.066;2022-11-04T08:01:48;9.00;99.90
8965;DHT22;4517;49.020;12.066;2022-11-04T08:04:14;9.00;99.90
8965;DHT22;4517;49.020;12.066;2022-11-04T08:06:39;9.00;99.90
8965;DHT22;4517;49.020;12.066;2022-11-04T08:09:05;9.00;99.90
8965;DHT22;4517;49.020;12.066;2022-11-04T08:11:30;9.00;99.90
8965;DHT22;4517;49.020;12.066;2022-11-04T08:13:57;9.00;99.90
8965;DHT22;4517;49.020;12.066;2022-11-04T08:16:23;9.00;99.90
8965;DHT22;4517;49.020;12.066;2022-11-04T08:18:50;9.00;99.90
8965;DHT22;4517;49.020;12.066;2022-11-04T08:21:20;9.00;99.90
8965;DHT22;4517;49.020;12.066;2022-11-04T08:23:45;9.00;99.90
8965;DHT22;4517;49.020;12.066;2022-11-04T08:26:16;9.00;99.90
8965;DHT22;4517;49.020;12.066;2022-11-04T08:28:42;9.00;99.90
8965;DHT22;4517;49.020;12.066;2022-11-04T08:31:12;9.00;99.90
8965;DHT22;4517;49.020;12.066;2022-11-04T08:33:39;9.00;99.90
8965;DHT22;4517;49.020;12.066;2022-11-04T08:36:15;9.00;99.90
8965;DHT22;4517;49.020;12.066;2022-11-04T08:38:41;9.00;99.90
8965;DHT22;4517;49.020;12.066;2022-11-04T08:41:08;9.00;99.90
8965;DHT22;4517;49.020;12.066;2022-11-04T08:43:34;9.00;99.90
8965;DHT22;4517;49.020;12.066;2022-11-04T08:46:00;9.10;99.90
8965;DHT22;4517;49.020;12.066;2022-11-04T08:48:26;9.20;99.90
8965;DHT22;4517;49.020;12.066;2022-11-04T08:50:54;9.20;99.90
8965;DHT22;4517;49.020;12.066;2022-11-04T08:53:20;9.30;99.90
8965;DHT22;4517;49.020;12.066;2022-11-04T08:55:46;9.50;99.90
8965;DHT22;4517;49.020;12.066;2022-11-04T08:58:13;9.60;99.90
8965;DHT22;4517;49.020;12.066;2022-11-04T09:00:38;9.80;99.90
8965;DHT22;4517;49.020;12.066;2022-11-04T09:03:04;10.00;99.90
8965;DHT22;4517;49.020;12.066;2022-11-04T09:05:30;10.10;99.90
8965;DHT22;4517;49.020;12.066;2022-11-04T09:07:57;10.30;99.90
8965;DHT22;4517;49.020;12.066;2022-11-04T09:10:23;10.40;99.90
8965;DHT22;4517;49.020;12.066;2022-11-04T09:12:48;10.40;99.90
8965;DHT22;4517;49.020;12.066;2022-11-04T09:15:14;10.50;99.90
8965;DHT22;4517;49.020;12.066;2022-11-04T09:17:40;10.60;99.90
8965;DHT22;4517;49.020;12.066;2022-11-04T09:20:06;10.60;99.90
8965;DHT22;4517;49.020;12.066;2022-11-04T09:22:32;10.50;99.90
8965;DHT22;4517;49.020;12.066;2022-11-04T09:24:57;10.50;99.90
8965;DHT22;4517;49.020;12.066;2022-11-04T09:27:23;10.50;99.90
8965;DHT22;4517;49.020;12.066;2022-11-04T09:29:49;10.60;99.90
8965;DHT22;4517;49.020;12.066;2022-11-04T09:32:14;10.70;99.90
8965;DHT22;4517;49.020;12.066;2022-11-04T09:34:40;11.10;99.90
8965;DHT22;4517;49.020;12.066;2022-11-04T09:37:05;11.20;99.90
8965;DHT22;4517;49.020;12.066;2022-11-04T09:39:31;11.30;99.90
8965;DHT22;4517;49.020;12.066;2022-11-04T09:44:34;11.60;99.90
8965;DHT22;4517;49.020;12.066;2022-11-04T09:47:04;11.50;99.90
8965;DHT22;4517;49.020;12.066;2022-11-04T09:49:36;11.50;99.90
8965;DHT22;4517;49.020;12.066;2022-11-04T09:52:12;11.50;99.90
8965;DHT22;4517;49.020;12.066;2022-11-04T09:54:51;11.50;99.90
8965;DHT22;4517;49.020;12.066;2022-11-04T09:57:19;11.50;99.90
8965;DHT22;4517;49.020;12.066;2022-11-04T09:59:45;11.40;99.90
8965;DHT22;4517;49.020;12.066;2022-11-04T10:02:39;11.40;99.90
8965;DHT22;4517;49.020;12.066;2022-11-04T10:05:27;11.40;99.90
8965;DHT22;4517;49.020;12.066;2022-11-04T10:08:20;11.30;99.90
8965;DHT22;4517;49.020;12.066;2022-11-04T10:16:26;11.00;99.90
8965;DHT22;4517;49.020;12.066;2022-11-04T10:22:32;10.80;99.90
8965;DHT22;4517;49.020;12.066;2022-11-04T10:24:41;10.90;99.90
8965;DHT22;4517;49.020;12.066;2022-11-04T10:27:16;10.90;99.90
8965;DHT22;4517;49.020;12.066;2022-11-04T10:30:26;11.10;99.90
8965;DHT22;4517;49.020;12.066;2022-11-04T10:32:43;11.20;99.90
8965;DHT22;4517;49.020;12.066;2022-11-04T10:35:25;11.20;99.90
8965;DHT22;4517;49.020;12.066;2022-11-04T10:37:54;11.20;99.90
8965;DHT22;4517;49.020;12.066;2022-11-04T10:40:34;11.10;99.90
8965;DHT22;4517;49.020;12.066;2022-11-04T10:43:06;11.00;99.90
8965;DHT22;4517;49.020;12.066;2022-11-04T10:45:41;11.00;99.90
8965;DHT22;4517;49.020;12.066;2022-11-04T10:48:18;11.10;99.90
8965;DHT22;4517;49.020;12.066;2022-11-04T10:50:54;11.30;99.90
8965;DHT22;4517;49.020;12.066;2022-11-04T10:53:23;11.50;99.90
8965;DHT22;4517;49.020;12.066;2022-11-04T10:58:48;11.50;99.90
8965;DHT22;4517;49.020;12.066;2022-11-04T11:01:30;11.20;99.90
8965;DHT22;4517;49.020;12.066;2022-11-04T11:03:57;11.20;99.90
8965;DHT22;4517;49.020;12.066;2022-11-04T11:06:31;11.10;99.90
8965;DHT22;4517;49.020;12.066;2022-11-04T11:11:42;11.30;99.90
8965;DHT22;4517;49.020;12.066;2022-11-04T11:14:18;11.40;99.90
8965;DHT22;4517;49.020;12.066;2022-11-04T11:16:44;11.50;99.90
8965;DHT22;4517;49.020;12.066;2022-11-04T11:19:20;11.40;99.90
8965;DHT22;4517;49.020;12.066;2022-11-04T11:21:49;11.40;99.90
8965;DHT22;4517;49.020;12.066;2022-11-04T11:26:44;11.20;99.90
8965;DHT22;4517;49.020;12.066;2022-11-04T11:29:21;11.20;99.90
8965;DHT22;4517;49.020;12.066;2022-11-04T11:31:49;11.30;99.90
8965;DHT22;4517;49.020;12.066;2022-11-04T11:34:26;11.20;99.90
8965;DHT22;4517;49.020;12.066;2022-11-04T11:36:54;11.20;99.90
8965;DHT22;4517;49.020;12.066;2022-11-04T11:39:26;11.30;99.90
8965;DHT22;4517;49.020;12.066;2022-11-04T11:42:03;11.40;99.90
8965;DHT22;4517;49.020;12.066;2022-11-04T11:44:44;11.20;99.90
8965;DHT22;4517;49.020;12.066;2022-11-04T11:50:13;11.20;99.90
8965;DHT22;4517;49.020;12.066;2022-11-04T11:52:40;11.10;99.90
8965;DHT22;4517;49.020;12.066;2022-11-04T11:55:25;11.00;99.90
8965;DHT22;4517;49.020;12.066;2022-11-04T12:00:31;11.00;99.90
8965;DHT22;4517;49.020;12.066;2022-11-04T12:03:07;10.90;99.90
8965;DHT22;4517;49.020;12.066;2022-11-04T12:05:39;10.80;99.90
8965;DHT22;4517;49.020;12.066;2022-11-04T12:10:45;10.70;99.90
8965;DHT22;4517;49.020;12.066;2022-11-04T12:13:15;10.70;99.90
8965;DHT22;4517;49.020;12.066;2022-11-04T12:18:57;10.60;99.90
8965;DHT22;4517;49.020;12.066;2022-11-04T12:21:32;10.60;99.90
8965;DHT22;4517;49.020;12.066;2022-11-04T12:24:33;10.60;99.90
8965;DHT22;4517;49.020;12.066;2022-11-04T12:27:19;10.60;99.90
8965;DHT22;4517;49.020;12.066;2022-11-04T12:35:03;10.40;99.90
8965;DHT22;4517;49.020;12.066;2022-11-04T12:40:24;10.30;99.90
8965;DHT22;4517;49.020;12.066;2022-11-04T12:46:03;10.20;99.90
8965;DHT22;4517;49.020;12.066;2022-11-04T12:48:16;10.10;99.90
8965;DHT22;4517;49.020;12.066;2022-11-04T12:51:08;10.00;99.90
8965;DHT22;4517;49.020;12.066;2022-11-04T12:54:07;10.00;99.90
8965;DHT22;4517;49.020;12.066;2022-11-04T12:56:38;10.00;99.90
8965;DHT22;4517;49.020;12.066;2022-11-04T13:08:04;10.00;99.90
8965;DHT22;4517;49.020;12.066;2022-11-04T13:10:52;9.90;99.90
8965;DHT22;4517;49.020;12.066;2022-11-04T13:13:24;9.80;99.90
8965;DHT22;4517;49.020;12.066;2022-11-04T13:15:54;9.80;99.90
8965;DHT22;4517;49.020;12.066;2022-11-04T13:18:25;9.80;99.90
8965;DHT22;4517;49.020;12.066;2022-11-04T13:21:04;9.70;99.90
8965;DHT22;4517;49.020;12.066;2022-11-04T13:23:36;9.70;99.90
8965;DHT22;4517;49.020;12.066;2022-11-04T13:26:06;9.70;99.90
8965;DHT22;4517;49.020;12.066;2022-11-04T13:28:35;9.70;99.90
8965;DHT22;4517;49.020;12.066;2022-11-04T13:31:07;9.70;99.90
8965;DHT22;4517;49.020;12.066;2022-11-04T13:33:53;9.70;99.90
8965;DHT22;4517;49.020;12.066;2022-11-04T13:39:24;9.60;99.90
8965;DHT22;4517;49.020;12.066;2022-11-04T13:44:44;9.60;99.90
8965;DHT22;4517;49.020;12.066;2022-11-04T13:47:35;9.60;99.90
8965;DHT22;4517;49.020;12.066;2022-11-04T13:50:01;9.70;99.90
8965;DHT22;4517;49.020;12.066;2022-11-04T13:52:30;9.70;99.90
8965;DHT22;4517;49.020;12.066;2022-11-04T13:54:57;9.70;99.90
8965;DHT22;4517;49.020;12.066;2022-11-04T13:57:26;9.70;99.90
8965;DHT22;4517;49.020;12.066;2022-11-04T14:00:19;9.70;99.90
8965;DHT22;4517;49.020;12.066;2022-11-04T14:03:37;9.70;99.90
8965;DHT22;4517;49.020;12.066;2022-11-04T14:06:01;9.70;99.90
8965;DHT22;4517;49.020;12.066;2022-11-04T14:08:28;9.70;99.90
8965;DHT22;4517;49.020;12.066;2022-11-04T14:11:07;9.70;99.90
8965;DHT22;4517;49.020;12.066;2022-11-04T14:13:41;9.70;99.90
8965;DHT22;4517;49.020;12.066;2022-11-04T14:16:09;9.70;99.90
8965;DHT22;4517;49.020;12.066;2022-11-04T14:18:43;9.70;99.90
8965;DHT22;4517;49.020;12.066;2022-11-04T14:21:11;9.60;99.90
8965;DHT22;4517;49.020;12.066;2022-11-04T14:23:39;9.60;99.90
8965;DHT22;4517;49.020;12.066;2022-11-04T14:26:08;9.60;99.90
8965;DHT22;4517;49.020;12.066;2022-11-04T14:28:35;9.60;99.90
8965;DHT22;4517;49.020;12.066;2022-11-04T14:33:53;9.50;99.90
8965;DHT22;4517;49.020;12.066;2022-11-04T14:46:55;9.30;99.90
8965;DHT22;4517;49.020;12.066;2022-11-04T14:49:45;9.30;99.90
8965;DHT22;4517;49.020;12.066;2022-11-04T14:52:23;9.40;99.90
8965;DHT22;4517;49.020;12.066;2022-11-04T14:55:04;9.40;99.90
8965;DHT22;4517;49.020;12.066;2022-11-04T14:57:39;9.30;99.90
8965;DHT22;4517;49.020;12.066;2022-11-04T15:00:36;9.30;99.90
8965;DHT22;4517;49.020;12.066;2022-11-04T15:05:36;9.20;99.90
8965;DHT22;4517;49.020;12.066;2022-11-04T15:08:26;9.20;99.90
8965;DHT22;4517;49.020;12.066;2022-11-04T15:10:57;9.20;99.90
8965;DHT22;4517;49.020;12.066;2022-11-04T15:13:24;9.20;99.90
8965;DHT22;4517;49.020;12.066;2022-11-04T15:15:56;9.10;99.90
8965;DHT22;4517;49.020;12.066;2022-11-04T15:18:25;9.10;99.90
8965;DHT22;4517;49.020;12.066;2022-11-04T15:20:56;9.10;99.90
8965;DHT22;4517;49.020;12.066;2022-11-04T15:23:28;9.00;99.90
8965;DHT22;4517;49.020;12.066;2022-11-04T15:25:54;9.00;99.90
8965;DHT22;4517;49.020;12.066;2022-11-04T15:28:26;9.00;99.90
8965;DHT22;4517;49.020;12.066;2022-11-04T15:31:04;8.90;99.90
8965;DHT22;4517;49.020;12.066;2022-11-04T15:33:38;8.90;99.90
8965;DHT22;4517;49.020;12.066;2022-11-04T15:36:07;8.90;99.90
8965;DHT22;4517;49.020;12.066;2022-11-04T15:38:34;8.80;99.90
8965;DHT22;4517;49.020;12.066;2022-11-04T15:41:02;8.80;99.90
8965;DHT22;4517;49.020;12.066;2022-11-04T15:43:48;8.80;99.90
8965;DHT22;4517;49.020;12.066;2022-11-04T15:46:17;8.80;99.90
8965;DHT22;4517;49.020;12.066;2022-11-04T15:48:59;8.80;99.90
8965;DHT22;4517;49.020;12.066;2022-11-04T15:51:26;8.80;99.90
8965;DHT22;4517;49.020;12.066;2022-11-04T15:54:14;8.80;99.90
8965;DHT22;4517;49.020;12.066;2022-11-04T15:56:45;8.80;99.90
8965;DHT22;4517;49.020;12.066;2022-11-04T15:59:18;8.80;99.90
8965;DHT22;4517;49.020;12.066;2022-11-04T16:01:46;8.80;99.90
8965;DHT22;4517;49.020;12.066;2022-11-04T16:04:13;8.80;99.90
8965;DHT22;4517;49.020;12.066;2022-11-04T16:06:41;8.70;99.90
8965;DHT22;4517;49.020;12.066;2022-11-04T16:09:20;8.70;99.90
8965;DHT22;4517;49.020;12.066;2022-11-04T16:12:08;8.60;99.90
8965;DHT22;4517;49.020;12.066;2022-11-04T16:14:35;8.70;99.90
8965;DHT22;4517;49.020;12.066;2022-11-04T16:17:01;8.70;99.90
8965;DHT22;4517;49.020;12.066;2022-11-04T16:19:28;8.70;99.90
8965;DHT22;4517;49.020;12.066;2022-11-04T16:22:03;8.70;99.90
8965;DHT22;4517;49.020;12.066;2022-11-04T16:24:35;8.70;99.90
8965;DHT22;4517;49.020;12.066;2022-11-04T16:27:03;8.70;99.90
8965;DHT22;4517;49.020;12.066;2022-11-04T16:29:34;8.70;99.90
8965;DHT22;4517;49.020;12.066;2022-11-04T16:32:26;8.70;99.90
8965;DHT22;4517;49.020;12.066;2022-11-04T16:34:57;8.60;99.90
8965;DHT22;4517;49.020;12.066;2022-11-04T16:37:23;8.60;99.90
8965;DHT22;4517;49.020;12.066;2022-11-04T16:39:50;8.60;99.90
8965;DHT22;4517;49.020;12.066;2022-11-04T16:42:16;8.60;99.90
8965;DHT22;4517;49.020;12.066;2022-11-04T16:44:50;8.60;99.90
8965;DHT22;4517;49.020;12.066;2022-11-04T16:47:17;8.60;99.90
8965;DHT22;4517;49.020;12.066;2022-11-04T16:49:43;8.60;99.90
8965;DHT22;4517;49.020;12.066;2022-11-04T16:52:14;8.50;99.90
8965;DHT22;4517;49.020;12.066;2022-11-04T16:54:42;8.50;99.90
8965;DHT22;4517;49.020;12.066;2022-11-04T16:57:12;8.50;99.90
8965;DHT22;4517;49.020;12.066;2022-11-04T16:59:39;8.50;99.90
8965;DHT22;4517;49.020;12.066;2022-11-04T17:02:18;8.40;99.90
8965;DHT22;4517;49.020;12.066;2022-11-04T17:04:45;8.50;99.90
8965;DHT22;4517;49.020;12.066;2022-11-04T17:07:12;8.40;99.90
8965;DHT22;4517;49.020;12.066;2022-11-04T17:09:37;8.40;99.90
8965;DHT22;4517;49.020;12.066;2022-11-04T17:12:03;8.30;99.90
8965;DHT22;4517;49.020;12.066;2022-11-04T17:14:29;8.30;99.90
8965;DHT22;4517;49.020;12.066;2022-11-04T17:16:54;8.40;99.90
8965;DHT22;4517;49.020;12.066;2022-11-04T17:19:20;8.40;99.90
8965;DHT22;4517;49.020;12.066;2022-11-04T17:21:46;8.40;99.90
8965;DHT22;4517;49.020;12.066;2022-11-04T17:24:12;8.40;99.90
8965;DHT22;4517;49.020;12.066;2022-11-04T17:26:38;8.40;99.90
8965;DHT22;4517;49.020;12.066;2022-11-04T17:29:06;8.30;99.90
8965;DHT22;4517;49.020;12.066;2022-11-04T17:31:32;8.30;99.90
8965;DHT22;4517;49.020;12.066;2022-11-04T17:33:58;8.30;99.90
8965;DHT22;4517;49.020;12.066;2022-11-04T17:36:23;8.30;99.90
8965;DHT22;4517;49.020;12.066;2022-11-04T17:38:49;8.20;99.90
8965;DHT22;4517;49.020;12.066;2022-11-04T17:41:14;8.20;99.90
8965;DHT22;4517;49.020;12.066;2022-11-04T17:43:58;8.20;99.90
8965;DHT22;4517;49.020;12.066;2022-11-04T17:46:24;8.20;99.90
8965;DHT22;4517;49.020;12.066;2022-11-04T17:49:15;8.20;99.90
8965;DHT22;4517;49.020;12.066;2022-11-04T17:51:43;8.20;99.90
8965;DHT22;4517;49.020;12.066;2022-11-04T17:54:09;8.20;99.90
8965;DHT22;4517;49.020;12.066;2022-11-04T17:56:36;8.20;99.90
8965;DHT22;4517;49.020;12.066;2022-11-04T17:59:03;8.20;99.90
8965;DHT22;4517;49.020;12.066;2022-11-04T18:01:29;8.20;99.90
8965;DHT22;4517;49.020;12.066;2022-11-04T18:03:56;8.30;99.90